Time;durP1;ratioP1;P1;durP2;ratioP2;P2;SDS_P1;SDS_P2;PMS_P1;PMS_P2;Temp;Humidity;BMP_temperature;BMP_pressure;BME280_temperature;BME280_humidity;BME280_pressure;Samples;Min_cycle;Max_cycle;Signal;HPM_P1;HPM_P2
2022/08/31 00:04:31;;;;;;;4.90;4.17;;;17.70;99.90;;;;;;4977423;28;20449;-73
2022/08/31 00:06:56;;;;;;;5.70;4.00;;;17.70;99.90;;;;;;4975930;28;20416;-73
2022/08/31 00:09:22;;;;;;;6.20;4.47;;;17.70;99.90;;;;;;4977005;28;20504;-73
2022/08/31 00:11:48;;;;;;;6.50;3.97;;;17.70;99.90;;;;;;4975592;28;20447;-73
2022/08/31 00:14:14;;;;;;;4.90;4.00;;;17.80;99.90;;;;;;4977227;28;20185;-73
2022/08/31 00:16:42;;;;;;;4.70;4.10;;;17.80;99.90;;;;;;4977150;28;20189;-73
2022/08/31 00:19:08;;;;;;;4.90;4.20;;;17.80;99.90;;;;;;4976916;28;20208;-74
2022/08/31 00:21:33;;;;;;;8.73;4.00;;;17.80;99.90;;;;;;4976562;28;20860;-73
2022/08/31 00:23:59;;;;;;;5.17;3.53;;;17.80;99.90;;;;;;4977090;28;20234;-73
2022/08/31 00:26:25;;;;;;;6.07;4.20;;;17.70;99.90;;;;;;4976816;28;20181;-73
2022/08/31 00:28:51;;;;;;;4.23;3.73;;;17.80;99.90;;;;;;4976986;28;20426;-73
2022/08/31 00:31:17;;;;;;;7.13;4.00;;;17.70;99.90;;;;;;4976474;28;20739;-74
2022/08/31 00:33:43;;;;;;;7.90;4.43;;;17.70;99.90;;;;;;4976962;28;20928;-74
2022/08/31 00:36:11;;;;;;;3.93;3.53;;;17.80;99.90;;;;;;4976684;28;20516;-73
2022/08/31 00:38:38;;;;;;;5.23;4.10;;;17.80;99.90;;;;;;4975532;28;20542;-73
2022/08/31 00:41:05;;;;;;;6.33;3.70;;;17.80;99.90;;;;;;4976207;28;20436;-74
2022/08/31 00:43:43;;;;;;;4.70;3.70;;;17.90;99.90;;;;;;4974966;28;20591;-73
2022/08/31 00:46:11;;;;;;;6.53;4.13;;;17.80;99.90;;;;;;4975388;28;20423;-73
2022/08/31 00:48:43;;;;;;;7.10;4.27;;;17.70;99.90;;;;;;4976393;28;20444;-73
2022/08/31 00:51:09;;;;;;;5.03;4.10;;;17.70;99.90;;;;;;4975259;28;20443;-74
2022/08/31 00:53:35;;;;;;;7.07;4.70;;;17.60;99.90;;;;;;4976400;28;20395;-73
2022/08/31 00:56:01;;;;;;;4.73;4.23;;;17.60;99.90;;;;;;4959036;28;20792;-74
2022/08/31 00:58:27;;;;;;;5.53;4.70;;;17.60;99.90;;;;;;4975066;28;20447;-73
2022/08/31 01:00:52;;;;;;;5.07;4.57;;;17.50;99.90;;;;;;4975957;28;20473;-73
2022/08/31 01:03:19;;;;;;;9.40;5.00;;;17.50;99.90;;;;;;4976197;28;20181;-73
2022/08/31 01:05:45;;;;;;;5.10;4.13;;;17.60;99.90;;;;;;4976294;28;20184;-73
2022/08/31 01:08:11;;;;;;;6.03;4.70;;;17.50;99.90;;;;;;4976318;28;20805;-73
2022/08/31 01:10:39;;;;;;;4.50;4.10;;;17.50;99.90;;;;;;4975792;28;20452;-73
2022/08/31 01:13:07;;;;;;;5.10;4.60;;;17.60;99.90;;;;;;4975004;28;20688;-73
2022/08/31 01:15:35;;;;;;;4.47;4.07;;;17.50;99.90;;;;;;4976099;28;20432;-73
2022/08/31 01:18:03;;;;;;;6.97;5.33;;;17.50;99.90;;;;;;4958975;28;20942;-73
2022/08/31 01:20:35;;;;;;;4.90;4.40;;;17.60;99.90;;;;;;4974442;28;21020;-73
2022/08/31 01:23:33;;;;;;;8.63;4.07;;;17.50;99.90;;;;;;4976200;28;20444;-73
2022/08/31 01:26:00;;;;;;;4.77;4.30;;;17.50;99.90;;;;;;4976035;28;20406;-73
2022/08/31 01:28:26;;;;;;;4.80;4.00;;;17.50;99.90;;;;;;4975962;28;20420;-73
2022/08/31 01:31:06;;;;;;;4.33;3.80;;;17.50;99.90;;;;;;4975466;28;20495;-73
2022/08/31 01:33:33;;;;;;;6.90;3.60;;;17.50;99.90;;;;;;4975757;28;20846;-73
2022/08/31 01:36:00;;;;;;;4.57;4.17;;;17.50;99.90;;;;;;4975610;28;20825;-73
2022/08/31 01:38:26;;;;;;;5.30;3.63;;;17.60;99.90;;;;;;4976197;28;20451;-73
2022/08/31 01:40:55;;;;;;;6.67;4.20;;;17.60;99.90;;;;;;4975530;28;20441;-73
2022/08/31 01:43:21;;;;;;;3.77;3.40;;;17.60;99.90;;;;;;4975597;28;20504;-73
2022/08/31 01:45:47;;;;;;;4.03;3.50;;;17.70;99.90;;;;;;4975509;28;20507;-73
2022/08/31 01:48:13;;;;;;;4.73;3.90;;;17.70;99.90;;;;;;4975526;28;20672;-73
2022/08/31 01:50:39;;;;;;;6.80;4.20;;;17.60;99.90;;;;;;4973870;28;20440;-73
2022/08/31 01:53:05;;;;;;;6.80;4.50;;;17.60;99.90;;;;;;4975558;28;20416;-72
2022/08/31 01:55:31;;;;;;;5.03;3.33;;;17.60;99.90;;;;;;4975339;28;20782;-73
2022/08/31 01:57:57;;;;;;;4.60;3.97;;;17.60;99.90;;;;;;4975225;28;20725;-73
2022/08/31 02:00:23;;;;;;;4.13;3.73;;;17.60;99.90;;;;;;4975033;28;20436;-73
2022/08/31 02:02:48;;;;;;;8.67;4.00;;;17.50;99.90;;;;;;4975252;28;20933;-73
2022/08/31 02:05:14;;;;;;;6.50;3.80;;;17.50;99.90;;;;;;4974043;28;20209;-74
2022/08/31 02:07:40;;;;;;;6.57;4.17;;;17.40;99.90;;;;;;4973904;28;20188;-73
2022/08/31 02:10:06;;;;;;;4.40;3.60;;;17.50;99.90;;;;;;4957320;28;20188;-73
2022/08/31 02:12:32;;;;;;;4.63;4.13;;;17.50;99.90;;;;;;4975084;28;20410;-73
2022/08/31 02:14:58;;;;;;;4.77;4.33;;;17.50;99.90;;;;;;4975085;28;20507;-72
2022/08/31 02:17:23;;;;;;;5.17;3.80;;;17.60;99.90;;;;;;4973966;28;20185;-73
2022/08/31 02:19:49;;;;;;;5.90;3.67;;;17.50;99.90;;;;;;4974655;28;20185;-73
2022/08/31 02:22:15;;;;;;;4.90;4.50;;;17.40;99.90;;;;;;4974784;28;20236;-73
2022/08/31 02:24:40;;;;;;;6.00;4.80;;;17.40;99.90;;;;;;4974854;28;20212;-73
2022/08/31 02:27:06;;;;;;;6.30;4.60;;;17.40;99.90;;;;;;4973904;28;20181;-73
2022/08/31 02:29:33;;;;;;;5.60;3.93;;;17.40;99.90;;;;;;4974978;28;20185;-73
2022/08/31 02:31:59;;;;;;;6.10;4.03;;;17.50;99.90;;;;;;4973463;28;20204;-73
2022/08/31 02:34:25;;;;;;;9.53;4.33;;;17.50;99.90;;;;;;4974642;28;20434;-73
2022/08/31 02:36:50;;;;;;;4.27;3.70;;;17.60;99.90;;;;;;4973985;28;20192;-73
2022/08/31 02:39:16;;;;;;;5.83;3.97;;;17.60;99.90;;;;;;4974973;28;20428;-73
2022/08/31 02:41:42;;;;;;;5.47;3.80;;;17.50;99.90;;;;;;4974505;28;20601;-73
2022/08/31 02:44:07;;;;;;;6.10;4.00;;;17.30;99.90;;;;;;4974515;28;20294;-73
2022/08/31 02:46:33;;;;;;;5.20;4.30;;;17.40;99.90;;;;;;4974601;28;20204;-72
2022/08/31 02:49:00;;;;;;;5.63;3.80;;;17.50;99.90;;;;;;4974605;28;20684;-73
2022/08/31 02:51:26;;;;;;;6.13;4.57;;;17.50;99.90;;;;;;4974130;28;20208;-72
2022/08/31 02:53:51;;;;;;;7.43;3.93;;;17.50;99.90;;;;;;4974535;28;20421;-74
2022/08/31 02:56:17;;;;;;;5.93;3.53;;;17.60;99.90;;;;;;4973256;28;20212;-73
2022/08/31 02:58:43;;;;;;;5.60;4.10;;;17.60;99.90;;;;;;4974524;28;20311;-73
2022/08/31 03:01:09;;;;;;;4.50;3.90;;;17.50;99.90;;;;;;4974035;28;20204;-73
2022/08/31 03:03:36;;;;;;;6.50;4.37;;;17.50;99.90;;;;;;4974405;28;20208;-73
2022/08/31 03:06:02;;;;;;;5.87;4.10;;;17.60;99.90;;;;;;4974396;28;20413;-73
2022/08/31 03:08:28;;;;;;;5.67;5.00;;;17.60;99.90;;;;;;4974232;28;20575;-73
2022/08/31 03:10:54;;;;;;;6.03;4.50;;;17.60;99.90;;;;;;4973818;28;20951;-73
2022/08/31 03:13:20;;;;;;;4.63;3.67;;;17.80;99.90;;;;;;4974492;28;20204;-72
2022/08/31 03:15:45;;;;;;;4.20;3.80;;;17.80;99.90;;;;;;4977265;28;20272;-73
2022/08/31 03:18:11;;;;;;;5.53;4.70;;;17.70;99.90;;;;;;4978318;28;20244;-73
2022/08/31 03:20:37;;;;;;;7.20;3.93;;;17.70;99.90;;;;;;4976820;28;20223;-73
2022/08/31 03:23:03;;;;;;;5.00;4.60;;;17.80;99.90;;;;;;4978517;28;20181;-73
2022/08/31 03:25:29;;;;;;;4.80;3.77;;;17.70;99.90;;;;;;4976869;28;20605;-73
2022/08/31 03:27:55;;;;;;;4.63;4.23;;;17.50;99.90;;;;;;4978252;28;20782;-73
2022/08/31 03:30:22;;;;;;;4.57;4.17;;;17.40;99.90;;;;;;4977931;28;20436;-73
2022/08/31 03:32:49;;;;;;;7.50;5.03;;;17.50;99.90;;;;;;4978021;28;20184;-73
2022/08/31 03:35:16;;;;;;;5.10;4.60;;;17.60;99.90;;;;;;4976999;28;20420;-72
2022/08/31 03:37:42;;;;;;;4.83;4.30;;;17.50;99.90;;;;;;4976668;28;20440;-73
2022/08/31 03:40:08;;;;;;;4.60;4.20;;;17.50;99.90;;;;;;4976447;28;20817;-73
2022/08/31 03:42:34;;;;;;;7.30;4.50;;;17.50;99.90;;;;;;4977943;28;20209;-73
2022/08/31 03:45:00;;;;;;;6.87;4.57;;;17.40;99.90;;;;;;4977703;28;20978;-72
2022/08/31 03:47:25;;;;;;;5.47;4.40;;;17.40;99.90;;;;;;4978005;28;20196;-72
2022/08/31 03:49:51;;;;;;;5.43;4.93;;;17.50;99.90;;;;;;4960301;28;20188;-73
2022/08/31 03:52:19;;;;;;;5.50;4.40;;;17.50;99.90;;;;;;4977780;28;20201;-72
2022/08/31 03:54:45;;;;;;;5.63;4.80;;;17.50;99.90;;;;;;4976314;28;20216;-72
2022/08/31 03:57:10;;;;;;;8.30;6.03;;;17.50;99.90;;;;;;4977658;28;20455;-72
2022/08/31 03:59:36;;;;;;;5.83;5.10;;;17.40;99.90;;;;;;4976345;28;20189;-72
2022/08/31 04:02:02;;;;;;;5.50;5.00;;;17.30;99.90;;;;;;4977248;28;20215;-72
2022/08/31 04:04:27;;;;;;;7.17;5.00;;;17.30;99.90;;;;;;4977434;28;20281;-74
2022/08/31 04:06:53;;;;;;;6.47;5.87;;;17.20;99.90;;;;;;4976066;28;20187;-73
2022/08/31 04:09:18;;;;;;;6.10;5.50;;;17.10;99.90;;;;;;4976222;28;20260;-72
2022/08/31 04:11:44;;;;;;;7.83;6.00;;;17.00;99.90;;;;;;4975751;28;20600;-72
2022/08/31 04:14:10;;;;;;;9.60;6.00;;;16.90;99.90;;;;;;4976033;28;20189;-72
2022/08/31 04:16:38;;;;;;;7.80;6.67;;;16.90;99.90;;;;;;4977252;28;20181;-73
2022/08/31 04:19:05;;;;;;;7.30;6.57;;;16.80;99.90;;;;;;4977022;28;20412;-73
2022/08/31 04:21:31;;;;;;;7.10;6.40;;;16.60;99.90;;;;;;4976876;28;20951;-73
2022/08/31 04:23:58;;;;;;;7.30;6.10;;;16.70;99.90;;;;;;4975959;28;20469;-73
2022/08/31 04:26:23;;;;;;;8.80;7.10;;;16.70;99.90;;;;;;4975641;28;20192;-73
2022/08/31 04:28:49;;;;;;;7.80;6.07;;;16.70;99.90;;;;;;4976836;28;20787;-73
2022/08/31 04:31:16;;;;;;;8.33;7.37;;;16.60;99.90;;;;;;4976428;28;20211;-73
2022/08/31 04:33:42;;;;;;;9.67;7.40;;;16.50;99.90;;;;;;4977255;28;20416;-73
2022/08/31 04:36:10;;;;;;;7.60;6.90;;;16.60;99.90;;;;;;4976896;28;20416;-72
2022/08/31 04:38:36;;;;;;;8.83;7.93;;;16.60;99.90;;;;;;4976067;28;20406;-73
2022/08/31 04:41:09;;;;;;;10.87;7.73;;;16.40;99.90;;;;;;4976439;28;20929;-73
2022/08/31 04:43:37;;;;;;;9.13;8.20;;;16.30;99.90;;;;;;4976717;28;20468;-73
2022/08/31 04:46:05;;;;;;;12.03;8.17;;;16.40;99.90;;;;;;4976903;28;20788;-73
2022/08/31 04:48:31;;;;;;;11.53;8.20;;;16.40;99.90;;;;;;4975666;28;20444;-73
2022/08/31 04:51:06;;;;;;;9.47;7.80;;;16.40;99.90;;;;;;4976354;28;20440;-74
2022/08/31 04:53:32;;;;;;;8.67;7.90;;;16.40;99.90;;;;;;4976522;28;20411;-73
2022/08/31 04:55:58;;;;;;;8.80;8.00;;;16.40;99.90;;;;;;4975348;28;20503;-73
2022/08/31 04:58:23;;;;;;;9.30;8.40;;;16.50;99.90;;;;;;4975329;28;20512;-73
2022/08/31 05:00:52;;;;;;;8.57;7.77;;;16.50;99.90;;;;;;4975693;28;20276;-73
2022/08/31 05:03:18;;;;;;;10.40;7.63;;;16.40;99.90;;;;;;4976239;28;20539;-76
2022/08/31 05:05:49;;;;;;;9.90;8.67;;;16.40;99.90;;;;;;4975076;28;20431;-73
2022/08/31 05:08:16;;;;;;;9.60;8.13;;;16.50;99.90;;;;;;4976367;28;20432;-73
2022/08/31 05:10:42;;;;;;;9.60;7.87;;;16.50;99.90;;;;;;4975887;28;20436;-73
2022/08/31 05:13:07;;;;;;;10.97;8.00;;;16.60;99.90;;;;;;4976323;28;20495;-76
2022/08/31 05:15:33;;;;;;;9.60;7.57;;;16.60;99.90;;;;;;4958671;28;20184;-74
2022/08/31 05:17:59;;;;;;;8.93;7.07;;;16.50;99.90;;;;;;4974966;28;20546;-73
2022/08/31 05:20:25;;;;;;;11.50;9.40;;;16.60;99.90;;;;;;4974506;28;20252;-73
2022/08/31 05:22:51;;;;;;;10.20;8.40;;;16.60;99.90;;;;;;4976099;28;20905;-73
2022/08/31 05:25:17;;;;;;;8.47;7.67;;;16.60;99.90;;;;;;4976036;28;20459;-72
2022/08/31 05:27:42;;;;;;;10.60;9.60;;;16.60;99.90;;;;;;4958625;28;20176;-73
2022/08/31 05:30:08;;;;;;;10.60;9.13;;;16.50;99.90;;;;;;4974379;28;20268;-73
2022/08/31 05:32:34;;;;;;;11.50;10.33;;;16.50;99.90;;;;;;4975783;28;20181;-73
2022/08/31 05:35:00;;;;;;;11.70;9.60;;;16.50;99.90;;;;;;4976037;28;20531;-73
2022/08/31 05:37:26;;;;;;;10.90;9.90;;;16.50;99.90;;;;;;4974386;28;20189;-74
2022/08/31 05:39:51;;;;;;;11.07;8.57;;;16.60;99.90;;;;;;4975424;28;20180;-73
2022/08/31 05:42:19;;;;;;;12.33;9.27;;;16.60;99.90;;;;;;4975663;28;20454;-73
2022/08/31 05:44:46;;;;;;;9.90;8.30;;;16.60;99.90;;;;;;4975658;28;20296;-73
2022/08/31 05:47:11;;;;;;;11.57;9.20;;;16.60;99.90;;;;;;4975593;28;20442;-73
2022/08/31 05:49:38;;;;;;;14.00;9.60;;;16.50;99.90;;;;;;4975748;28;20416;-74
2022/08/31 05:52:05;;;;;;;11.77;9.70;;;16.50;99.90;;;;;;4974222;28;20201;-73
2022/08/31 05:54:33;;;;;;;10.23;9.00;;;16.60;99.90;;;;;;4975739;28;20831;-73
2022/08/31 05:56:59;;;;;;;10.90;9.80;;;16.60;99.90;;;;;;4975601;28;21007;-73
2022/08/31 05:59:25;;;;;;;13.10;9.23;;;16.70;99.90;;;;;;4975527;28;20507;-73
2022/08/31 06:01:51;;;;;;;9.70;8.70;;;16.70;99.90;;;;;;4974965;28;20727;-75
2022/08/31 06:04:16;;;;;;;9.60;8.47;;;16.70;99.90;;;;;;4975281;28;20631;-74
2022/08/31 06:06:42;;;;;;;10.03;8.47;;;16.70;99.90;;;;;;4974301;28;20180;-73
2022/08/31 06:09:08;;;;;;;8.80;7.90;;;16.80;99.90;;;;;;4975283;28;20474;-74
2022/08/31 06:11:34;;;;;;;10.33;8.70;;;16.80;99.90;;;;;;4974812;28;20531;-73
2022/08/31 06:14:02;;;;;;;10.53;9.43;;;16.70;99.90;;;;;;4975047;28;20177;-73
2022/08/31 06:16:29;;;;;;;9.37;8.50;;;16.80;99.90;;;;;;4975105;28;20418;-73
2022/08/31 06:18:56;;;;;;;10.03;8.60;;;16.80;99.90;;;;;;4975081;28;20428;-73
2022/08/31 06:21:29;;;;;;;10.00;8.67;;;16.90;99.90;;;;;;4973334;28;20922;-73
2022/08/31 06:23:57;;;;;;;10.03;8.90;;;16.80;99.90;;;;;;4975139;28;20972;-74
2022/08/31 06:26:24;;;;;;;10.80;9.00;;;16.90;99.90;;;;;;4975049;28;20419;-73
2022/08/31 06:28:53;;;;;;;10.90;9.17;;;17.00;99.90;;;;;;4974936;28;20982;-73
2022/08/31 06:31:25;;;;;;;9.67;8.70;;;17.00;99.90;;;;;;4973228;28;20539;-73
2022/08/31 06:33:51;;;;;;;11.83;9.17;;;17.00;99.90;;;;;;4974926;28;20440;-73
2022/08/31 06:36:19;;;;;;;9.80;8.83;;;17.00;99.90;;;;;;4974680;28;20827;-73
2022/08/31 06:38:45;;;;;;;15.43;10.17;;;17.00;99.90;;;;;;4974297;28;20974;-73
2022/08/31 06:41:14;;;;;;;9.60;8.77;;;16.80;99.90;;;;;;4974481;28;20936;-73
2022/08/31 06:43:39;;;;;;;10.53;9.43;;;16.90;99.90;;;;;;4974839;28;20555;-74
2022/08/31 06:46:05;;;;;;;10.50;8.97;;;17.00;99.90;;;;;;4957030;28;20427;-73
2022/08/31 06:48:32;;;;;;;9.60;8.70;;;17.10;99.90;;;;;;4973940;28;20256;-78
2022/08/31 06:50:58;;;;;;;9.60;8.60;;;17.10;99.90;;;;;;4973294;28;20471;-78
2022/08/31 06:53:24;;;;;;;13.20;9.30;;;17.20;99.90;;;;;;4973494;28;20445;-78
2022/08/31 06:55:50;;;;;;;9.97;9.07;;;17.30;99.90;;;;;;4974377;28;20449;-79
2022/08/31 06:58:16;;;;;;;10.43;9.33;;;17.40;99.90;;;;;;4973599;28;20428;-78
2022/08/31 07:00:41;;;;;;;11.40;10.23;;;17.30;99.90;;;;;;4973640;28;20205;-79
2022/08/31 07:03:22;;;;;;;10.70;9.53;;;17.30;99.90;;;;;;4974660;28;20204;-76
2022/08/31 07:05:50;;;;;;;10.83;9.73;;;17.30;99.90;;;;;;4974654;28;20208;-76
2022/08/31 07:08:17;;;;;;;11.67;10.30;;;17.40;99.90;;;;;;4974217;28;20428;-76
2022/08/31 07:10:42;;;;;;;11.23;10.03;;;17.30;99.90;;;;;;4974012;28;20434;-76
2022/08/31 07:13:08;;;;;;;15.23;9.40;;;17.10;99.90;;;;;;4974497;28;20953;-74
2022/08/31 07:15:34;;;;;;;11.60;10.50;;;17.20;99.90;;;;;;4973067;28;20580;-73
2022/08/31 07:17:59;;;;;;;15.77;9.87;;;17.10;99.90;;;;;;4973132;28;20184;-74
2022/08/31 07:20:25;;;;;;;11.70;10.00;;;17.20;99.90;;;;;;4973667;28;20232;-74
2022/08/31 07:22:50;;;;;;;11.57;9.13;;;17.30;99.90;;;;;;4974369;28;20184;-74
2022/08/31 07:25:17;;;;;;;12.63;10.10;;;17.20;99.90;;;;;;4974242;28;20216;-73
2022/08/31 07:27:43;;;;;;;11.97;9.73;;;17.20;99.90;;;;;;4974180;28;20188;-74
2022/08/31 07:30:09;;;;;;;15.57;10.17;;;17.20;99.90;;;;;;4973957;28;20394;-74
2022/08/31 07:32:37;;;;;;;11.30;10.10;;;17.30;99.90;;;;;;4973988;28;20406;-74
2022/08/31 07:35:04;;;;;;;11.47;10.37;;;17.40;99.90;;;;;;4973069;28;20424;-73
2022/08/31 07:43:00;;;;;;;11.33;10.13;;;17.60;99.90;;;;;;4974407;28;20426;-74
2022/08/31 07:45:26;;;;;;;13.20;10.63;;;17.50;99.90;;;;;;4973969;28;20495;-74
2022/08/31 07:47:54;;;;;;;12.70;11.13;;;17.80;99.90;;;;;;4972670;28;20512;-73
2022/08/31 07:50:20;;;;;;;12.03;10.27;;;17.90;99.90;;;;;;4973545;28;20220;-74
2022/08/31 07:52:52;;;;;;;15.90;10.03;;;17.90;99.90;;;;;;4972799;28;20527;-74
2022/08/31 07:55:20;;;;;;;11.40;10.20;;;17.80;99.90;;;;;;4974277;28;20459;-74
2022/08/31 07:57:47;;;;;;;11.00;10.00;;;17.70;99.90;;;;;;4974177;28;20913;-73
2022/08/31 08:00:18;;;;;;;11.63;10.50;;;17.70;99.90;;;;;;4974933;28;20408;-74
2022/08/31 08:02:47;;;;;;;11.07;9.90;;;18.00;99.90;;;;;;4977731;28;20455;-73
2022/08/31 08:05:21;;;;;;;14.90;10.87;;;18.10;99.90;;;;;;4977451;28;20529;-74
2022/08/31 08:07:49;;;;;;;13.67;11.07;;;18.10;99.90;;;;;;4976154;28;20431;-74
2022/08/31 08:10:17;;;;;;;10.50;9.47;;;18.00;99.90;;;;;;4977012;28;20432;-73
2022/08/31 08:12:47;;;;;;;11.83;10.23;;;18.20;99.90;;;;;;4977260;28;20420;-75
2022/08/31 08:15:13;;;;;;;12.47;11.30;;;18.50;99.90;;;;;;4977333;28;20428;-73
2022/08/31 08:17:39;;;;;;;12.90;10.03;;;18.50;99.90;;;;;;4977330;28;20412;-74
2022/08/31 08:20:06;;;;;;;11.93;10.47;;;18.40;99.90;;;;;;4976865;28;20987;-73
2022/08/31 08:22:32;;;;;;;12.17;10.13;;;18.50;99.90;;;;;;4975828;28;20474;-74
2022/08/31 08:24:59;;;;;;;11.67;10.27;;;18.60;99.90;;;;;;4976833;28;20463;-74
2022/08/31 08:27:25;;;;;;;12.43;10.17;;;18.50;99.90;;;;;;4977242;28;20203;-74
2022/08/31 08:29:51;;;;;;;11.67;10.57;;;18.50;99.90;;;;;;4976944;28;20436;-74
2022/08/31 08:32:17;;;;;;;19.50;10.30;;;18.50;99.90;;;;;;4977016;28;20944;-74
2022/08/31 08:34:44;;;;;;;11.37;10.27;;;18.50;99.90;;;;;;4976994;28;20434;-74
2022/08/31 08:37:10;;;;;;;12.00;10.73;;;18.80;99.90;;;;;;4977064;28;20428;-73
2022/08/31 08:39:43;;;;;;;12.60;10.07;;;19.20;99.90;;;;;;4976825;28;20416;-74
2022/08/31 08:42:12;;;;;;;12.07;10.30;;;19.30;99.90;;;;;;4976934;28;20442;-74
2022/08/31 08:44:38;;;;;;;11.63;10.17;;;19.40;99.90;;;;;;4976699;28;20474;-73
2022/08/31 08:47:14;;;;;;;11.73;10.50;;;19.40;99.90;;;;;;4976613;28;20479;-75
2022/08/31 08:49:49;;;;;;;12.90;9.97;;;19.30;99.90;;;;;;4976566;28;20414;-74
2022/08/31 08:52:34;;;;;;;9.50;8.70;;;19.40;99.90;;;;;;4976605;28;20438;-74
2022/08/31 08:55:02;;;;;;;10.97;9.97;;;19.50;99.90;;;;;;4976373;28;20416;-73
2022/08/31 08:57:31;;;;;;;11.27;10.17;;;19.60;99.90;;;;;;4975134;28;20428;-74
2022/08/31 09:00:10;;;;;;;12.30;11.03;;;19.80;99.90;;;;;;4976038;28;20827;-73
2022/08/31 09:03:00;;;;;;;12.77;9.67;;;20.00;99.90;;;;;;4976463;28;20416;-74
2022/08/31 09:05:58;;;;;;;11.50;10.30;;;20.30;99.90;;;;;;4976207;28;20546;-74
2022/08/31 09:09:17;;;;;;;11.40;9.20;;;20.60;99.90;;;;;;4976357;28;20419;-73
2022/08/31 09:12:00;;;;;;;8.93;8.03;;;20.90;99.90;;;;;;4958905;28;20817;-74
2022/08/31 09:14:29;;;;;;;10.40;9.30;;;21.90;99.90;;;;;;4976238;28;20411;-74
2022/08/31 09:17:23;;;;;;;9.40;8.50;;;22.20;99.90;;;;;;4976227;28;20465;-74
2022/08/31 09:20:04;;;;;;;8.63;7.90;;;22.90;99.90;;;;;;4975768;28;20415;-74
2022/08/31 09:22:49;;;;;;;9.20;8.30;;;22.80;99.90;;;;;;4976107;28;20809;-74
2022/08/31 09:25:50;;;;;;;10.10;9.10;;;22.80;99.90;;;;;;4975788;28;20455;-74
2022/08/31 09:28:31;;;;;;;10.13;8.40;;;22.80;99.90;;;;;;4976161;28;20407;-74
2022/08/31 09:30:57;;;;;;;8.77;7.90;;;22.10;99.90;;;;;;4975550;28;20478;-73
2022/08/31 09:33:28;;;;;;;9.27;8.30;;;22.80;99.90;;;;;;4974873;28;20412;-74
2022/08/31 09:36:14;;;;;;;9.67;7.30;;;23.50;99.90;;;;;;4975713;28;20172;-74
2022/08/31 09:38:40;;;;;;;9.63;7.37;;;24.40;99.90;;;;;;4975959;28;20791;-74
2022/08/31 09:41:36;;;;;;;8.67;7.77;;;25.00;99.90;;;;;;4975527;28;20482;-74
2022/08/31 09:44:32;;;;;;;7.40;6.80;;;25.50;99.90;;;;;;4967135;28;20471;-75
2022/08/31 09:47:19;;;;;;;11.37;7.37;;;25.80;99.90;;;;;;4975662;28;20455;-75
2022/08/31 09:49:55;;;;;;;10.10;8.93;;;25.20;99.90;;;;;;4967762;28;20431;-76
2022/08/31 09:55:18;;;;;;;8.50;7.60;;;26.20;99.90;;;;;;4975778;28;20492;-74
2022/08/31 09:57:56;;;;;;;9.03;8.20;;;26.20;99.90;;;;;;4975650;28;20423;-75
2022/08/31 10:00:41;;;;;;;8.47;7.67;;;26.00;99.90;;;;;;4975188;28;20449;-76
2022/08/31 10:03:17;;;;;;;8.80;7.93;;;25.80;99.90;;;;;;4974289;28;20467;-76
2022/08/31 10:05:43;;;;;;;9.27;8.23;;;26.00;99.90;;;;;;4975114;28;20459;-75
2022/08/31 10:08:56;;;;;;;9.20;8.30;;;26.00;99.90;;;;;;4975208;28;20430;-76
2022/08/31 10:11:28;;;;;;;8.90;7.20;;;25.70;99.90;;;;;;4974894;28;20246;-75
2022/08/31 10:13:59;;;;;;;9.13;7.20;;;25.50;99.90;;;;;;4973769;28;20434;-75
2022/08/31 10:16:46;;;;;;;9.80;7.77;;;25.70;99.90;;;;;;4975132;28;20404;-74
2022/08/31 10:19:29;;;;;;;8.40;7.60;;;26.70;99.90;;;;;;4975029;28;20415;-74
2022/08/31 10:22:10;;;;;;;8.57;7.47;;;27.20;99.90;;;;;;4974395;28;20847;-75
2022/08/31 10:24:47;;;;;;;7.17;6.53;;;27.00;99.90;;;;;;4974877;28;20464;-77
2022/08/31 10:27:30;;;;;;;8.37;7.57;;;27.30;99.90;;;;;;4974934;28;20439;-75
2022/08/31 10:30:02;;;;;;;8.50;6.77;;;26.70;99.90;;;;;;4973015;28;20428;-75
2022/08/31 10:32:46;;;;;;;9.27;8.43;;;26.30;99.90;;;;;;4974755;28;20427;-75
2022/08/31 10:35:21;;;;;;;7.07;6.43;;;26.10;99.90;;;;;;4974675;28;20762;-76
2022/08/31 10:38:08;;;;;;;8.03;7.33;;;26.60;99.90;;;;;;4974737;28;20426;-76
2022/08/31 10:40:43;;;;;;;9.20;7.70;;;26.50;99.90;;;;;;4974386;28;20447;-76
2022/08/31 10:43:17;;;;;;;8.83;8.00;;;26.50;99.90;;;;;;4974843;28;20781;-76
2022/08/31 10:45:47;;;;;;;7.80;7.10;;;26.50;99.90;;;;;;4974542;28;20458;-77
2022/08/31 10:48:19;;;;;;;7.43;6.83;;;26.70;99.90;;;;;;4973559;28;20447;-77
2022/08/31 10:51:10;;;;;;;6.87;6.10;;;26.90;99.90;;;;;;4974193;28;20435;-76
2022/08/31 10:53:51;;;;;;;8.10;7.30;;;27.10;99.90;;;;;;4974857;28;20407;-75
2022/08/31 10:56:20;;;;;;;6.10;5.60;;;27.50;99.90;;;;;;4973382;28;20423;-76
2022/08/31 10:59:00;;;;;;;6.33;5.30;;;27.30;99.90;;;;;;4974363;28;20802;-76
2022/08/31 11:01:54;;;;;;;6.10;5.47;;;27.40;99.90;;;;;;4972893;28;20446;-76
2022/08/31 11:04:40;;;;;;;6.80;4.87;;;27.50;99.90;;;;;;4974347;28;20821;-76
2022/08/31 11:07:24;;;;;;;8.03;5.40;;;27.10;99.90;;;;;;4974014;28;20415;-75
2022/08/31 11:10:18;;;;;;;6.50;4.73;;;27.20;99.90;;;;;;4974070;28;20425;-75
2022/08/31 11:12:50;;;;;;;6.20;5.30;;;27.60;99.90;;;;;;4974456;28;20423;-76
2022/08/31 11:15:38;;;;;;;5.43;4.90;;;27.40;99.90;;;;;;4974388;28;20421;-76
2022/08/31 11:18:46;;;;;;;4.97;4.43;;;27.20;99.90;;;;;;4974140;28;20415;-75
2022/08/31 11:21:52;;;;;;;4.90;4.17;;;27.40;99.90;;;;;;4973818;28;20768;-75
2022/08/31 11:24:30;;;;;;;6.77;4.67;;;27.50;99.90;;;;;;4974022;28;20486;-75
2022/08/31 11:26:59;;;;;;;4.47;4.07;;;27.60;99.90;;;;;;4974247;28;20454;-75
2022/08/31 11:29:34;;;;;;;5.50;4.83;;;28.00;99.90;;;;;;4974101;28;20868;-75
2022/08/31 11:32:22;;;;;;;5.97;4.93;;;28.30;99.90;;;;;;4973698;28;20793;-76
2022/08/31 11:34:53;;;;;;;5.70;4.93;;;28.30;99.90;;;;;;4975097;28;20423;-77
2022/08/31 11:37:54;;;;;;;5.67;5.10;;;28.50;99.90;;;;;;4978069;28;20404;-76
2022/08/31 11:40:40;;;;;;;8.00;5.17;;;27.40;99.90;;;;;;4977598;28;20442;-75
2022/08/31 11:43:35;;;;;;;7.17;5.03;;;26.90;99.90;;;;;;4978059;28;20412;-77
2022/08/31 11:46:39;;;;;;;5.10;4.70;;;27.40;99.90;;;;;;4972551;28;20444;-76
2022/08/31 11:49:09;;;;;;;5.90;4.27;;;27.70;99.90;;;;;;4977574;28;20781;-76
2022/08/31 11:51:41;;;;;;;5.63;5.03;;;27.60;99.90;;;;;;4977429;28;20435;-77
2022/08/31 11:54:25;;;;;;;5.50;5.00;;;27.90;99.90;;;;;;4976748;28;20494;-75
2022/08/31 11:56:55;;;;;;;6.40;4.67;;;27.60;99.90;;;;;;4977636;28;20411;-76
2022/08/31 11:59:27;;;;;;;9.73;5.43;;;27.80;99.90;;;;;;4977735;28;20416;-75
2022/08/31 12:01:56;;;;;;;4.40;4.00;;;28.10;99.90;;;;;;4977266;28;20439;-76
2022/08/31 12:04:40;;;;;;;5.27;4.77;;;28.10;99.90;;;;;;4977631;28;20549;-75
2022/08/31 12:07:09;;;;;;;5.50;4.70;;;28.60;99.90;;;;;;4977700;28;20933;-75
2022/08/31 12:09:50;;;;;;;6.30;3.63;;;28.90;99.90;;;;;;4977340;28;20424;-76
2022/08/31 12:12:36;;;;;;;4.83;4.17;;;28.70;99.90;;;;;;4977428;28;20449;-77
2022/08/31 12:15:18;;;;;;;3.90;3.60;;;28.60;99.90;;;;;;4969649;28;20416;-75
2022/08/31 12:18:11;;;;;;;5.90;4.27;;;28.70;99.90;;;;;;4977601;28;20439;-75
2022/08/31 12:24:20;;;;;;;4.30;3.87;;;28.50;99.90;;;;;;4977418;28;20486;-75
2022/08/31 12:27:03;;;;;;;5.33;3.70;;;28.60;99.90;;;;;;4976990;28;20415;-75
2022/08/31 12:29:31;;;;;;;5.67;4.67;;;28.40;99.90;;;;;;4977283;28;20782;-75
2022/08/31 12:32:21;;;;;;;4.27;3.77;;;28.70;99.90;;;;;;4976778;28;20534;-76
2022/08/31 12:35:19;;;;;;;5.33;3.50;;;29.00;99.90;;;;;;4977204;28;20928;-76
2022/08/31 12:37:55;;;;;;;3.80;3.50;;;29.40;99.90;;;;;;4976700;28;21023;-76
2022/08/31 12:40:23;;;;;;;6.57;4.10;;;29.30;99.90;;;;;;4976551;28;20431;-75
2022/08/31 12:42:57;;;;;;;5.60;4.23;;;29.30;99.90;;;;;;4975333;28;20427;-75
2022/08/31 12:45:38;;;;;;;5.70;4.50;;;29.10;99.90;;;;;;4976742;28;20466;-77
2022/08/31 12:48:42;;;;;;;4.63;3.80;;;28.90;99.90;;;;;;4974637;28;20439;-74
2022/08/31 12:51:24;;;;;;;4.17;3.80;;;28.70;99.90;;;;;;4976368;28;20427;-74
2022/08/31 12:53:56;;;;;;;4.90;4.23;;;29.00;99.90;;;;;;4975773;28;20459;-75
2022/08/31 12:56:43;;;;;;;5.20;3.97;;;29.40;99.90;;;;;;4976674;28;20450;-77
2022/08/31 12:59:49;;;;;;;3.33;3.03;;;28.80;99.90;;;;;;4976803;28;20422;-76
2022/08/31 13:02:15;;;;;;;6.10;3.87;;;28.70;99.90;;;;;;4976560;28;20481;-76
2022/08/31 13:04:46;;;;;;;3.60;3.30;;;28.60;99.90;;;;;;5085983;23;21052;-75
2022/08/31 13:07:28;;;;;;;5.17;3.57;;;28.70;99.90;;;;;;4984729;28;20461;-76
2022/08/31 13:10:13;;;;;;;3.63;3.20;;;28.60;99.90;;;;;;4990848;28;20989;-76
2022/08/31 13:12:47;;;;;;;3.87;3.07;;;29.20;99.90;;;;;;4975221;28;20501;-76
2022/08/31 13:15:29;;;;;;;6.20;3.13;;;30.00;99.90;;;;;;4975146;28;20422;-75
2022/08/31 13:17:55;;;;;;;3.40;3.10;;;30.70;99.90;;;;;;4976413;28;20823;-75
2022/08/31 13:20:27;;;;;;;3.20;3.00;;;30.80;99.90;;;;;;4974617;28;20510;-75